createdAt,value
2017-09-06T00:00:22.778Z,1013.4
2017-09-06T00:01:31.625Z,1013.36
2017-09-06T00:02:40.475Z,1013.33
2017-09-06T00:03:49.322Z,1013.33
2017-09-06T00:04:58.319Z,1013.26
2017-09-06T00:06:07.171Z,1013.27
2017-09-06T00:07:16.351Z,1013.28
2017-09-06T00:08:25.199Z,1013.25
2017-09-06T00:09:34.046Z,1013.23
2017-09-06T00:10:43.044Z,1013.24
2017-09-06T00:11:51.894Z,1013.22
2017-09-06T00:13:00.740Z,1013.19
2017-09-06T00:14:09.588Z,1013.17
2017-09-06T00:15:18.434Z,1013.16
2017-09-06T00:16:27.434Z,1013.17
2017-09-06T00:17:36.283Z,1013.15
2017-09-06T00:18:45.132Z,1013.12
2017-09-06T00:19:53.981Z,1013.09
2017-09-06T00:21:02.828Z,1013.08
2017-09-06T00:22:12.158Z,1013.05
2017-09-06T00:23:21.007Z,1013.05
2017-09-06T00:24:29.854Z,1013.04
2017-09-06T00:25:38.703Z,1013.02
2017-09-06T00:26:47.549Z,1013.04
2017-09-06T00:27:56.599Z,1012.98
2017-09-06T00:29:05.448Z,1013.01
2017-09-06T00:30:14.295Z,1012.99
2017-09-06T00:31:23.144Z,1012.95
2017-09-06T00:32:31.995Z,1012.99
2017-09-06T00:33:40.992Z,1012.98
2017-09-06T00:34:49.842Z,1012.94
2017-09-06T00:35:58.687Z,1012.93
2017-09-06T00:37:07.535Z,1012.88
2017-09-06T00:38:16.383Z,1012.89
2017-09-06T00:39:25.764Z,1012.89
2017-09-06T00:40:34.612Z,1012.87
2017-09-06T00:41:43.792Z,1012.89
2017-09-06T00:42:52.643Z,1012.86
2017-09-06T00:44:01.492Z,1012.81
2017-09-06T00:45:10.540Z,1012.78
2017-09-06T00:46:19.387Z,1012.78
2017-09-06T00:47:28.234Z,1012.72
2017-09-06T00:48:37.084Z,1012.76
2017-09-06T00:49:45.934Z,1012.71
2017-09-06T00:50:55.216Z,1012.72
2017-09-06T00:52:04.063Z,1012.66
2017-09-06T00:53:12.912Z,1012.66
2017-09-06T00:54:21.761Z,1012.62
2017-09-06T00:55:30.613Z,1012.6
2017-09-06T00:56:39.462Z,1012.61
2017-09-06T00:57:48.310Z,1012.55
2017-09-06T00:58:57.155Z,1012.59
2017-09-06T01:00:06.002Z,1012.56
2017-09-06T01:01:14.850Z,1012.6
2017-09-06T01:02:23.746Z,1012.57
2017-09-06T01:03:32.595Z,1012.61
2017-09-06T01:04:41.440Z,1012.6
2017-09-06T01:05:50.288Z,1012.6
2017-09-06T01:06:59.132Z,1012.58
2017-09-06T01:08:08.229Z,1012.57
2017-09-06T01:09:17.074Z,1012.58
2017-09-06T01:10:25.920Z,1012.58
2017-09-06T01:11:34.767Z,1012.58
2017-09-06T01:12:43.613Z,1012.58
2017-09-06T01:13:52.609Z,1012.6
2017-09-06T01:15:01.457Z,1012.63
2017-09-06T01:16:10.634Z,1012.61
2017-09-06T01:17:19.480Z,1012.6
2017-09-06T01:18:28.330Z,1012.6
2017-09-06T01:19:37.277Z,1012.52
2017-09-06T01:20:46.122Z,1012.56
2017-09-06T01:21:54.974Z,1012.54
2017-09-06T01:23:03.820Z,1012.52
2017-09-06T01:24:12.667Z,1012.51
2017-09-06T01:25:21.614Z,1012.53
2017-09-06T01:26:30.559Z,1012.56
2017-09-06T01:27:39.408Z,1012.6
2017-09-06T01:28:48.254Z,1012.56
2017-09-06T01:29:57.103Z,1012.68
2017-09-06T01:31:06.103Z,1012.76
2017-09-06T01:32:14.948Z,1012.71
2017-09-06T01:33:23.795Z,1012.67
2017-09-06T01:34:32.641Z,1012.59
2017-09-06T01:35:41.487Z,1012.57
2017-09-06T01:36:50.481Z,1012.54
2017-09-06T01:37:59.326Z,1012.51
2017-09-06T01:39:08.173Z,1012.56
2017-09-06T01:40:17.019Z,1012.57
2017-09-06T01:41:25.869Z,1012.7
2017-09-06T01:42:34.914Z,1012.63
2017-09-06T01:43:43.760Z,1012.65
2017-09-06T01:44:52.605Z,1012.59
2017-09-06T01:46:01.450Z,1012.63
2017-09-06T01:47:10.293Z,1012.61
2017-09-06T01:48:19.521Z,1012.55
2017-09-06T01:49:28.365Z,1012.57
2017-09-06T01:50:37.212Z,1012.55
2017-09-06T01:51:46.057Z,1012.55
2017-09-06T01:52:54.904Z,1012.5
2017-09-06T01:54:03.798Z,1012.49
2017-09-06T01:55:12.644Z,1012.57
2017-09-06T01:56:21.486Z,1012.62
2017-09-06T01:57:30.334Z,1012.58
2017-09-06T01:58:39.183Z,1012.53
2017-09-06T01:59:48.081Z,1012.45
2017-09-06T02:00:56.927Z,1012.45
2017-09-06T02:02:05.781Z,1012.43
2017-09-06T02:03:14.624Z,1012.46
2017-09-06T02:04:23.471Z,1012.39
2017-09-06T02:05:32.569Z,1012.43
2017-09-06T02:06:41.414Z,1012.37
2017-09-06T02:07:50.263Z,1012.42
2017-09-06T02:08:59.112Z,1012.41
2017-09-06T02:10:07.958Z,1012.37
2017-09-06T02:11:16.953Z,1012.45
2017-09-06T02:12:25.799Z,1012.43
2017-09-06T02:13:34.643Z,1012.5
2017-09-06T02:14:43.492Z,1012.45
2017-09-06T02:15:52.336Z,1012.44
2017-09-06T02:17:01.233Z,1012.38
2017-09-06T02:18:10.079Z,1012.37
2017-09-06T02:19:18.923Z,1012.35
2017-09-06T02:20:27.770Z,1012.35
2017-09-06T02:21:36.950Z,1012.28
2017-09-06T02:22:45.792Z,1012.22
2017-09-06T02:23:54.637Z,1012.26
2017-09-06T02:25:03.484Z,1012.19
2017-09-06T02:26:12.359Z,1012.21
2017-09-06T02:27:21.175Z,1012.18
2017-09-06T02:28:30.168Z,1012.18
2017-09-06T02:29:39.014Z,1012.19
2017-09-06T02:30:47.859Z,1012.19
2017-09-06T02:31:56.706Z,1012.22
2017-09-06T02:33:05.550Z,1012.18
2017-09-06T02:34:14.547Z,1012.17
2017-09-06T02:35:23.391Z,1012.16
2017-09-06T02:36:32.237Z,1012.15
2017-09-06T02:37:41.083Z,1012.16
2017-09-06T02:38:50.260Z,1012.13
2017-09-06T02:39:59.486Z,1012.14
2017-09-06T02:41:08.332Z,1012.22
2017-09-06T02:42:17.175Z,1012.26
2017-09-06T02:43:26.357Z,1012.3
2017-09-06T02:44:35.253Z,1012.32
2017-09-06T02:45:44.247Z,1012.41
2017-09-06T02:46:53.094Z,1012.42
2017-09-06T02:48:01.939Z,1012.41
2017-09-06T02:49:10.783Z,1012.42
2017-09-06T02:50:19.629Z,1012.41
2017-09-06T02:51:28.523Z,1012.4
2017-09-06T02:52:37.372Z,1012.47
2017-09-06T02:53:46.218Z,1012.46
2017-09-06T02:54:55.064Z,1012.48
2017-09-06T02:56:03.911Z,1012.46
2017-09-06T02:57:12.860Z,1012.45
2017-09-06T02:58:21.707Z,1012.48
2017-09-06T02:59:30.884Z,1012.46
2017-09-06T03:00:39.727Z,1012.48
2017-09-06T03:01:48.573Z,1012.5
2017-09-06T03:02:57.618Z,1012.48
2017-09-06T03:04:06.465Z,1012.43
2017-09-06T03:05:15.311Z,1012.37
2017-09-06T03:06:24.156Z,1012.41
2017-09-06T03:07:33.005Z,1012.4
2017-09-06T03:08:42.002Z,1012.39
2017-09-06T03:09:50.850Z,1012.41
2017-09-06T03:10:59.697Z,1012.42
2017-09-06T03:12:08.540Z,1012.36
2017-09-06T03:13:17.390Z,1012.4
2017-09-06T03:14:26.288Z,1012.36
2017-09-06T03:15:35.138Z,1012.31
2017-09-06T03:16:43.984Z,1012.3
2017-09-06T03:17:52.833Z,1012.34
2017-09-06T03:19:01.681Z,1012.26
2017-09-06T03:20:10.779Z,1012.28
2017-09-06T03:21:19.625Z,1012.26
2017-09-06T03:22:28.472Z,1012.28
2017-09-06T03:23:37.348Z,1012.27
2017-09-06T03:24:46.531Z,1012.25
2017-09-06T03:25:55.428Z,1012.21
2017-09-06T03:27:04.271Z,1012.22
2017-09-06T03:28:13.119Z,1012.18
2017-09-06T03:29:21.964Z,1012.15
2017-09-06T03:30:30.810Z,1012.18
2017-09-06T03:31:39.710Z,1012.19
2017-09-06T03:32:48.559Z,1012.22
2017-09-06T03:33:57.406Z,1012.21
2017-09-06T03:35:06.254Z,1012.21
2017-09-06T03:36:15.102Z,1012.19
2017-09-06T03:37:24.100Z,1012.18
2017-09-06T03:38:33.282Z,1012.18
2017-09-06T03:39:42.127Z,1012.19
2017-09-06T03:40:50.975Z,1012.1
2017-09-06T03:41:59.831Z,1012.13
2017-09-06T03:43:08.729Z,1012.16
2017-09-06T03:44:17.575Z,1012.11
2017-09-06T03:45:26.425Z,1012.06
2017-09-06T03:46:35.272Z,1012.02
2017-09-06T03:47:44.121Z,1011.96
2017-09-06T03:48:52.967Z,1011.97
2017-09-06T03:50:01.819Z,1011.97
2017-09-06T03:51:10.997Z,1011.91
2017-09-06T03:52:19.843Z,1011.92
2017-09-06T03:53:28.690Z,1011.94
2017-09-06T03:54:37.636Z,1011.92
2017-09-06T03:55:46.485Z,1011.9
2017-09-06T03:56:55.333Z,1011.89
2017-09-06T03:58:04.180Z,1011.85
2017-09-06T03:59:13.028Z,1011.83
2017-09-06T04:00:21.929Z,1011.84
2017-09-06T04:01:30.775Z,1011.79
2017-09-06T04:02:39.623Z,1011.74
2017-09-06T04:03:48.472Z,1011.76
2017-09-06T04:04:57.319Z,1011.74
2017-09-06T04:06:06.365Z,1011.71
2017-09-06T04:07:15.214Z,1011.74
2017-09-06T04:08:24.063Z,1011.75
2017-09-06T04:09:32.911Z,1011.73
2017-09-06T04:10:41.756Z,1011.76
2017-09-06T04:11:50.600Z,1011.72
2017-09-06T04:12:59.448Z,1011.71
2017-09-06T04:14:08.296Z,1011.74
2017-09-06T04:15:17.481Z,1011.72
2017-09-06T04:16:26.663Z,1011.7
2017-09-06T04:17:35.658Z,1011.68
2017-09-06T04:18:44.508Z,1011.68
2017-09-06T04:19:53.355Z,1011.7
2017-09-06T04:21:02.203Z,1011.72
2017-09-06T04:22:11.047Z,1011.71
2017-09-06T04:23:19.946Z,1011.68
2017-09-06T04:24:28.792Z,1011.69
2017-09-06T04:25:37.639Z,1011.66
2017-09-06T04:26:46.491Z,1011.69
2017-09-06T04:27:55.337Z,1011.7
2017-09-06T04:29:04.337Z,1011.68
2017-09-06T04:30:13.183Z,1011.69
2017-09-06T04:31:22.031Z,1011.68
2017-09-06T04:32:30.880Z,1011.7
2017-09-06T04:33:39.729Z,1011.64
2017-09-06T04:34:48.577Z,1011.62
2017-09-06T04:35:57.429Z,1011.65
2017-09-06T04:37:06.276Z,1011.63
2017-09-06T04:38:15.125Z,1011.6
2017-09-06T04:39:23.971Z,1011.6
2017-09-06T04:40:32.819Z,1011.59
2017-09-06T04:41:41.664Z,1011.58
2017-09-06T04:42:50.511Z,1011.53
2017-09-06T04:43:59.359Z,1011.53
2017-09-06T04:45:08.209Z,1011.54
2017-09-06T04:46:17.056Z,1011.51
2017-09-06T04:47:25.904Z,1011.53
2017-09-06T04:48:34.750Z,1011.54
2017-09-06T04:49:43.598Z,1011.54
2017-09-06T04:50:52.444Z,1011.54
2017-09-06T04:52:01.292Z,1011.55
2017-09-06T04:53:10.142Z,1011.55
2017-09-06T04:54:18.990Z,1011.55
2017-09-06T04:55:27.837Z,1011.51
2017-09-06T04:56:36.683Z,1011.55
2017-09-06T04:57:45.536Z,1011.56
2017-09-06T04:58:54.381Z,1011.5
2017-09-06T05:00:03.328Z,1011.48
2017-09-06T05:01:12.201Z,1011.46
2017-09-06T05:02:21.052Z,1011.5
2017-09-06T05:03:29.911Z,1011.47
2017-09-06T05:04:38.758Z,1011.46
2017-09-06T05:05:47.759Z,1011.43
2017-09-06T05:06:56.602Z,1011.41
2017-09-06T05:08:05.451Z,1011.38
2017-09-06T05:09:14.300Z,1011.36
2017-09-06T05:10:23.150Z,1011.34
2017-09-06T05:11:32.101Z,1011.29
2017-09-06T05:12:40.949Z,1011.29
2017-09-06T05:13:49.797Z,1011.27
2017-09-06T05:14:58.645Z,1011.33
2017-09-06T05:16:07.496Z,1011.42
2017-09-06T05:17:16.497Z,1011.49
2017-09-06T05:18:25.677Z,1011.49
2017-09-06T05:19:34.525Z,1011.47
2017-09-06T05:20:43.377Z,1011.45
2017-09-06T05:21:52.229Z,1011.4
2017-09-06T05:23:01.226Z,1011.44
2017-09-06T05:24:10.076Z,1011.38
2017-09-06T05:25:18.923Z,1011.42
2017-09-06T05:26:27.770Z,1011.38
2017-09-06T05:27:36.620Z,1011.35
2017-09-06T05:28:45.962Z,1011.37
2017-09-06T05:29:54.810Z,1011.31
2017-09-06T05:31:03.658Z,1011.34
2017-09-06T05:32:12.507Z,1011.33
2017-09-06T05:33:21.358Z,1011.37
2017-09-06T05:34:30.308Z,1011.36
2017-09-06T05:35:39.158Z,1011.31
2017-09-06T05:36:48.037Z,1011.32
2017-09-06T05:37:56.859Z,1011.31
2017-09-06T05:39:05.705Z,1011.3
2017-09-06T05:40:14.703Z,1011.29
2017-09-06T05:41:23.551Z,1011.3
2017-09-06T05:42:32.398Z,1011.3
2017-09-06T05:43:41.578Z,1011.34
2017-09-06T05:44:50.424Z,1011.32
2017-09-06T05:45:59.426Z,1011.34
2017-09-06T05:47:08.275Z,1011.33
2017-09-06T05:48:17.126Z,1011.32
2017-09-06T05:49:25.976Z,1011.34
2017-09-06T05:50:34.839Z,1011.29
2017-09-06T05:51:43.783Z,1011.27
2017-09-06T05:52:52.805Z,1011.23
2017-09-06T05:54:02.005Z,1011.28
2017-09-06T05:55:11.119Z,1011.24
2017-09-06T05:56:20.015Z,1011.22
2017-09-06T05:57:29.202Z,1011.22
2017-09-06T05:58:38.065Z,1011.19
2017-09-06T05:59:46.912Z,1011.2
2017-09-06T06:00:55.763Z,1011.21
2017-09-06T06:02:04.609Z,1011.19
2017-09-06T06:03:13.507Z,1011.14
2017-09-06T06:04:22.358Z,1011.21
2017-09-06T06:05:31.223Z,1011.18
2017-09-06T06:06:40.069Z,1011.24
2017-09-06T06:07:48.918Z,1011.28
2017-09-06T06:08:57.867Z,1011.25
2017-09-06T06:10:06.716Z,1011.26
2017-09-06T06:11:15.565Z,1011.17
2017-09-06T06:12:24.415Z,1011.24
2017-09-06T06:13:33.265Z,1011.24
2017-09-06T06:14:42.318Z,1011.21
2017-09-06T06:15:51.166Z,1011.19
2017-09-06T06:17:00.017Z,1011.18
2017-09-06T06:18:09.200Z,1011.22
2017-09-06T06:19:18.377Z,1011.2
2017-09-06T06:20:27.276Z,1011.21
2017-09-06T06:21:36.121Z,1011.15
2017-09-06T06:22:44.968Z,1011.15
2017-09-06T06:23:53.815Z,1011.14
2017-09-06T06:25:02.659Z,1011.11
2017-09-06T06:26:11.656Z,1011.19
2017-09-06T06:27:20.500Z,1011.09
2017-09-06T06:28:29.677Z,1011.07
2017-09-06T06:29:38.525Z,1011.07
2017-09-06T06:30:47.372Z,1011.08
2017-09-06T06:31:56.265Z,1011.03
2017-09-06T06:33:05.114Z,1011.04
2017-09-06T06:34:14.294Z,1011.04
2017-09-06T06:35:23.138Z,1011.01
2017-09-06T06:36:31.984Z,1010.99
2017-09-06T06:37:40.980Z,1011.03
2017-09-06T06:38:49.825Z,1011.02
2017-09-06T06:39:58.672Z,1010.99
2017-09-06T06:41:07.521Z,1010.95
2017-09-06T06:42:16.706Z,1010.94
2017-09-06T06:43:25.650Z,1010.95
2017-09-06T06:44:34.497Z,1010.97
2017-09-06T06:45:43.344Z,1010.91
2017-09-06T06:46:52.189Z,1010.88
2017-09-06T06:48:01.036Z,1010.87
2017-09-06T06:49:10.030Z,1010.85
2017-09-06T06:50:18.877Z,1010.86
2017-09-06T06:51:27.723Z,1010.85
2017-09-06T06:52:36.571Z,1010.84
2017-09-06T06:53:45.419Z,1010.82
2017-09-06T06:54:54.417Z,1010.8
2017-09-06T06:56:03.599Z,1010.8
2017-09-06T06:57:12.447Z,1010.8
2017-09-06T06:58:21.293Z,1010.76
2017-09-06T06:59:30.140Z,1010.75
2017-09-06T07:00:38.987Z,1010.73
2017-09-06T07:01:47.836Z,1010.72
2017-09-06T07:02:56.684Z,1010.7
2017-09-06T07:04:05.533Z,1010.71
2017-09-06T07:05:14.380Z,1010.7
2017-09-06T07:06:23.225Z,1010.69
2017-09-06T07:07:32.071Z,1010.73
2017-09-06T07:08:40.919Z,1010.67
2017-09-06T07:09:49.765Z,1010.68
2017-09-06T07:10:58.613Z,1010.68
2017-09-06T07:12:07.606Z,1010.66
2017-09-06T07:13:16.455Z,1010.65
2017-09-06T07:14:25.304Z,1010.68
2017-09-06T07:15:34.152Z,1010.67
2017-09-06T07:16:42.998Z,1010.67
2017-09-06T07:17:52.174Z,1010.66
2017-09-06T07:19:01.019Z,1010.68
2017-09-06T07:20:09.868Z,1010.68
2017-09-06T07:21:18.718Z,1010.67
2017-09-06T07:22:27.568Z,1010.69
2017-09-06T07:23:36.413Z,1010.64
2017-09-06T07:24:45.261Z,1010.67
2017-09-06T07:25:54.108Z,1010.67
2017-09-06T07:27:02.956Z,1010.66
2017-09-06T07:28:11.803Z,1010.64
2017-09-06T07:29:20.650Z,1010.63
2017-09-06T07:30:29.501Z,1010.64
2017-09-06T07:31:38.349Z,1010.59
2017-09-06T07:32:47.527Z,1010.61
2017-09-06T07:33:56.374Z,1010.6
2017-09-06T07:35:05.372Z,1010.59
2017-09-06T07:36:14.219Z,1010.6
2017-09-06T07:37:23.067Z,1010.58
2017-09-06T07:38:31.917Z,1010.59
2017-09-06T07:39:40.767Z,1010.6
2017-09-06T07:40:49.765Z,1010.59
2017-09-06T07:41:58.613Z,1010.57
2017-09-06T07:43:07.459Z,1010.54
2017-09-06T07:44:16.317Z,1010.54
2017-09-06T07:45:25.165Z,1010.54
2017-09-06T07:46:34.165Z,1010.54
2017-09-06T07:47:43.014Z,1010.5
2017-09-06T07:48:52.197Z,1010.48
2017-09-06T07:50:01.052Z,1010.45
2017-09-06T07:51:09.892Z,1010.45
2017-09-06T07:52:18.987Z,1010.45
2017-09-06T07:53:27.837Z,1010.44
2017-09-06T07:54:36.690Z,1010.38
2017-09-06T07:55:45.539Z,1010.36
2017-09-06T07:56:54.389Z,1010.4
2017-09-06T07:58:03.589Z,1010.39
2017-09-06T07:59:12.435Z,1010.38
2017-09-06T08:00:21.285Z,1010.39
2017-09-06T08:01:30.131Z,1010.34
2017-09-06T08:02:38.982Z,1010.33
2017-09-06T08:03:47.880Z,1010.34
2017-09-06T08:04:56.734Z,1010.36
2017-09-06T08:06:05.584Z,1010.37
2017-09-06T08:07:14.433Z,1010.34
2017-09-06T08:08:23.282Z,1010.31
2017-09-06T08:09:32.278Z,1010.3
2017-09-06T08:10:41.126Z,1010.26
2017-09-06T08:11:49.973Z,1010.29
2017-09-06T08:12:59.161Z,1010.3
2017-09-06T08:14:08.011Z,1010.29
2017-09-06T08:15:16.856Z,1010.31
2017-09-06T08:16:25.705Z,1010.29
2017-09-06T08:17:34.554Z,1010.32
2017-09-06T08:18:43.768Z,1010.3
2017-09-06T08:19:52.614Z,1010.29
2017-09-06T08:21:01.560Z,1010.26
2017-09-06T08:22:10.411Z,1010.25
2017-09-06T08:23:19.259Z,1010.25
2017-09-06T08:24:28.113Z,1010.24
2017-09-06T08:25:36.964Z,1010.17
2017-09-06T08:26:45.916Z,1010.24
2017-09-06T08:27:54.787Z,1010.16
2017-09-06T08:29:03.643Z,1010.23
2017-09-06T08:30:12.490Z,1010.17
2017-09-06T08:31:21.339Z,1010.16
2017-09-06T08:32:30.337Z,1010.18
2017-09-06T08:33:39.191Z,1010.18
2017-09-06T08:34:48.040Z,1010.13
2017-09-06T08:35:56.888Z,1010.19
2017-09-06T08:37:05.736Z,1010.19
2017-09-06T08:38:14.734Z,1010.17
2017-09-06T08:39:23.582Z,1010.13
2017-09-06T08:40:32.430Z,1010.16
2017-09-06T08:41:41.278Z,1010.16
2017-09-06T08:42:50.126Z,1010.08
2017-09-06T08:43:59.458Z,1010.12
2017-09-06T08:45:08.305Z,1010.13
2017-09-06T08:46:17.152Z,1010.05
2017-09-06T08:47:26.001Z,1010.18
2017-09-06T08:48:34.850Z,1010.11
2017-09-06T08:49:43.797Z,1010.11
2017-09-06T08:50:52.642Z,1010.13
2017-09-06T08:52:01.489Z,1010.08
2017-09-06T08:53:10.686Z,1010.08
2017-09-06T08:54:19.534Z,1010.1
2017-09-06T08:55:28.428Z,1010.1
2017-09-06T08:56:37.277Z,1010.08
2017-09-06T08:57:46.122Z,1010.1
2017-09-06T08:58:55.302Z,1010.07
2017-09-06T09:00:04.149Z,1010.1
2017-09-06T09:01:13.048Z,1010.07
2017-09-06T09:02:21.898Z,1010.03
2017-09-06T09:03:30.742Z,1010
2017-09-06T09:04:39.593Z,1010.02
2017-09-06T09:05:48.442Z,1010.02
2017-09-06T09:06:57.339Z,1009.95
2017-09-06T09:08:06.212Z,1009.93
2017-09-06T09:09:15.036Z,1009.94
2017-09-06T09:10:23.884Z,1009.93
2017-09-06T09:11:32.733Z,1009.92
2017-09-06T09:12:41.890Z,1009.94
2017-09-06T09:13:50.736Z,1009.91
2017-09-06T09:14:59.586Z,1009.9
2017-09-06T09:16:08.436Z,1009.86
2017-09-06T09:17:17.287Z,1009.88
2017-09-06T09:18:26.336Z,1009.87
2017-09-06T09:19:35.184Z,1009.83
2017-09-06T09:20:44.032Z,1009.83
2017-09-06T09:21:52.883Z,1009.83
2017-09-06T09:23:01.732Z,1009.79
2017-09-06T09:24:10.730Z,1009.81
2017-09-06T09:25:19.580Z,1009.79
2017-09-06T09:26:28.430Z,1009.78
2017-09-06T09:27:37.280Z,1009.76
2017-09-06T09:28:46.132Z,1009.79
2017-09-06T09:29:55.033Z,1009.75
2017-09-06T09:31:03.883Z,1009.74
2017-09-06T09:32:12.734Z,1009.7
2017-09-06T09:33:21.585Z,1009.76
2017-09-06T09:34:30.435Z,1009.73
2017-09-06T09:35:39.382Z,1009.75
2017-09-06T09:36:48.231Z,1009.75
2017-09-06T09:37:57.427Z,1009.72
2017-09-06T09:39:06.282Z,1009.72
2017-09-06T09:40:15.125Z,1009.75
2017-09-06T09:41:24.173Z,1009.67
2017-09-06T09:42:33.020Z,1009.73
2017-09-06T09:43:41.868Z,1009.77
2017-09-06T09:44:51.050Z,1009.79
2017-09-06T09:45:59.900Z,1009.75
2017-09-06T09:47:08.897Z,1009.69
2017-09-06T09:48:17.745Z,1009.68
2017-09-06T09:49:26.601Z,1009.68
2017-09-06T09:50:35.444Z,1009.63
2017-09-06T09:51:44.295Z,1009.63
2017-09-06T09:52:53.584Z,1009.67
2017-09-06T09:54:02.430Z,1009.63
2017-09-06T09:55:11.280Z,1009.66
2017-09-06T09:56:20.127Z,1009.66
2017-09-06T09:57:28.972Z,1009.62
2017-09-06T09:58:37.868Z,1009.59
2017-09-06T09:59:46.715Z,1009.59
2017-09-06T10:00:55.903Z,1009.58
2017-09-06T10:02:04.751Z,1009.59
2017-09-06T10:03:13.596Z,1009.58
2017-09-06T10:04:22.496Z,1009.59
2017-09-06T10:05:31.344Z,1009.56
2017-09-06T10:06:40.192Z,1009.56
2017-09-06T10:07:49.040Z,1009.61
2017-09-06T10:08:57.884Z,1009.6
2017-09-06T10:10:06.782Z,1009.55
2017-09-06T10:11:15.628Z,1009.52
2017-09-06T10:12:24.477Z,1009.56
2017-09-06T10:13:33.324Z,1009.54
2017-09-06T10:14:42.170Z,1009.54
2017-09-06T10:15:51.170Z,1009.56
2017-09-06T10:17:00.019Z,1009.54
2017-09-06T10:18:08.866Z,1009.54
2017-09-06T10:19:17.714Z,1009.54
2017-09-06T10:20:26.561Z,1009.51
2017-09-06T10:21:35.891Z,1009.58
2017-09-06T10:22:44.740Z,1009.59
2017-09-06T10:23:53.583Z,1009.61
2017-09-06T10:25:02.430Z,1009.57
2017-09-06T10:26:11.277Z,1009.6
2017-09-06T10:27:20.173Z,1009.61
2017-09-06T10:28:29.021Z,1009.68
2017-09-06T10:29:37.872Z,1009.66
2017-09-06T10:30:46.720Z,1009.61
2017-09-06T10:31:55.577Z,1009.61
2017-09-06T10:33:04.425Z,1009.53
2017-09-06T10:34:13.271Z,1009.62
2017-09-06T10:35:22.118Z,1009.61
2017-09-06T10:36:30.964Z,1009.59
2017-09-06T10:37:39.811Z,1009.62
2017-09-06T10:38:48.708Z,1009.68
2017-09-06T10:39:57.557Z,1009.62
2017-09-06T10:41:06.406Z,1009.64
2017-09-06T10:42:15.252Z,1009.66
2017-09-06T10:43:24.099Z,1009.62
2017-09-06T10:44:33.094Z,1009.6
2017-09-06T10:45:41.941Z,1009.66
2017-09-06T10:46:50.789Z,1009.56
2017-09-06T10:47:59.634Z,1009.61
2017-09-06T10:49:08.480Z,1009.58
2017-09-06T10:50:17.428Z,1009.61
2017-09-06T10:51:26.607Z,1009.68
2017-09-06T10:52:35.457Z,1009.6
2017-09-06T10:53:44.308Z,1009.74
2017-09-06T10:54:53.156Z,1009.57
2017-09-06T10:56:02.304Z,1009.7
2017-09-06T10:57:11.152Z,1009.62
2017-09-06T10:58:20.000Z,1009.77
2017-09-06T10:59:29.182Z,1009.75
2017-09-06T11:00:38.031Z,1009.83
2017-09-06T11:01:47.025Z,1009.76
2017-09-06T11:02:55.878Z,1009.88
2017-09-06T11:04:05.053Z,1009.73
2017-09-06T11:05:13.899Z,1009.9
2017-09-06T11:06:22.749Z,1010.02
2017-09-06T11:07:31.922Z,1009.95
2017-09-06T11:08:40.775Z,1009.89
2017-09-06T11:09:49.638Z,1009.94
2017-09-06T11:10:58.482Z,1010.01
2017-09-06T11:12:07.331Z,1010
2017-09-06T11:13:16.479Z,1010.04
2017-09-06T11:14:25.383Z,1010.02
2017-09-06T11:15:34.233Z,1010.03
2017-09-06T11:16:43.156Z,1010.07
2017-09-06T11:17:52.002Z,1010.01
2017-09-06T11:19:01.048Z,1009.97
2017-09-06T11:20:09.895Z,1009.99
2017-09-06T11:21:18.740Z,1009.95
2017-09-06T11:22:27.591Z,1009.98
2017-09-06T11:23:36.436Z,1010.15
2017-09-06T11:24:45.333Z,1010.15
2017-09-06T11:25:54.243Z,1010.16
2017-09-06T11:27:03.118Z,1010.1
2017-09-06T11:28:11.969Z,1010.13
2017-09-06T11:29:20.819Z,1010.18
2017-09-06T11:30:29.838Z,1010.14
2017-09-06T11:31:39.024Z,1010.22
2017-09-06T11:32:47.898Z,1010.37
2017-09-06T11:33:56.744Z,1010.38
2017-09-06T11:35:05.599Z,1010.39
2017-09-06T11:36:14.543Z,1010.54
2017-09-06T11:37:23.399Z,1010.55
2017-09-06T11:38:32.288Z,1010.57
2017-09-06T11:39:41.139Z,1010.55
2017-09-06T11:40:50.112Z,1010.69
2017-09-06T11:41:59.077Z,1010.67
2017-09-06T11:43:07.924Z,1010.6
2017-09-06T11:44:16.803Z,1010.68
2017-09-06T11:45:25.652Z,1010.67
2017-09-06T11:46:34.506Z,1010.7
2017-09-06T11:47:43.448Z,1010.67
2017-09-06T11:48:52.700Z,1010.77
2017-09-06T11:50:01.823Z,1010.73
2017-09-06T11:51:10.672Z,1010.83
2017-09-06T11:52:19.521Z,1010.85
2017-09-06T11:53:29.105Z,1011
2017-09-06T11:54:37.957Z,1010.93
2017-09-06T11:55:46.804Z,1010.93
2017-09-06T11:56:55.653Z,1011.04
2017-09-06T11:58:04.498Z,1011.07
2017-09-06T12:00:52.064Z,1011.04
2017-09-06T12:02:00.952Z,1011.12
2017-09-06T12:03:09.974Z,1011.18
2017-09-06T12:04:19.287Z,1011.19
2017-09-06T12:05:28.596Z,1011.17
2017-09-06T12:06:38.134Z,1011.47
2017-09-06T12:07:47.065Z,1011.44
2017-09-06T12:08:55.990Z,1011.33
2017-09-06T12:10:05.161Z,1011.39
2017-09-06T12:11:15.029Z,1011.39
2017-09-06T12:12:26.181Z,1011.54
2017-09-06T12:13:35.349Z,1011.56
2017-09-06T12:14:44.247Z,1011.62
2017-09-06T12:15:53.305Z,1011.88
2017-09-06T12:17:02.271Z,1011.73
2017-09-06T12:18:11.935Z,1011.83
2017-09-06T12:19:21.177Z,1011.85
2017-09-06T12:20:30.153Z,1011.85
2017-09-06T12:21:40.673Z,1011.86
2017-09-06T12:22:50.171Z,1011.7
2017-09-06T12:23:59.245Z,1011.69
2017-09-06T12:25:08.370Z,1011.82
2017-09-06T12:26:18.078Z,1011.81
2017-09-06T12:27:27.020Z,1011.74
2017-09-06T12:28:36.289Z,1011.69
2017-09-06T12:29:45.813Z,1011.86
2017-09-06T12:30:54.797Z,1011.73
2017-09-06T12:32:03.792Z,1011.67
2017-09-06T12:33:13.121Z,1011.71
2017-09-06T12:34:22.195Z,1011.7
2017-09-06T12:35:31.322Z,1011.72
2017-09-06T12:36:40.234Z,1011.85
2017-09-06T12:37:49.416Z,1011.71
2017-09-06T12:38:58.345Z,1011.74
2017-09-06T12:40:07.311Z,1011.68
2017-09-06T12:41:18.029Z,1011.78
2017-09-06T12:42:26.881Z,1011.78
2017-09-06T12:43:35.729Z,1011.85
2017-09-06T12:44:44.582Z,1011.84
2017-09-06T12:45:53.437Z,1011.83
2017-09-06T12:47:02.439Z,1011.86
2017-09-06T12:48:11.293Z,1011.83
2017-09-06T12:49:20.149Z,1011.84
2017-09-06T12:50:28.998Z,1011.87
2017-09-06T12:51:37.850Z,1011.87
2017-09-06T12:52:46.751Z,1011.94
2017-09-06T12:53:55.602Z,1011.83
2017-09-06T12:55:04.801Z,1011.8
2017-09-06T12:56:13.654Z,1011.87
2017-09-06T12:57:22.513Z,1011.8
2017-09-06T12:58:31.727Z,1011.84
2017-09-06T12:59:40.584Z,1011.86
2017-09-06T13:00:49.435Z,1011.93
2017-09-06T13:01:58.296Z,1011.98
2017-09-06T13:03:07.156Z,1011.91
2017-09-06T13:04:16.059Z,1011.92
2017-09-06T13:05:24.932Z,1011.89
2017-09-06T13:06:33.823Z,1011.85
2017-09-06T13:07:42.677Z,1011.9
2017-09-06T13:08:51.527Z,1011.94
2017-09-06T13:10:00.678Z,1011.91
2017-09-06T13:11:09.536Z,1011.86
2017-09-06T13:12:18.392Z,1011.9
2017-09-06T13:13:27.595Z,1012.02
2017-09-06T13:14:36.503Z,1012.02
2017-09-06T13:15:46.009Z,1012
2017-09-06T13:16:54.937Z,1011.91
2017-09-06T13:18:03.840Z,1012.01
2017-09-06T13:19:12.784Z,1011.95
2017-09-06T13:20:21.719Z,1011.97
2017-09-06T13:21:30.969Z,1012.06
2017-09-06T13:22:39.882Z,1012.03
2017-09-06T13:23:48.801Z,1012.04
2017-09-06T13:24:57.683Z,1012.19
2017-09-06T13:26:06.594Z,1012.01
2017-09-06T13:27:15.456Z,1012.1
2017-09-06T13:28:24.384Z,1012.05
2017-09-06T13:29:33.306Z,1012.1
2017-09-06T13:30:42.216Z,1012.14
2017-09-06T13:31:51.095Z,1012.1
2017-09-06T13:32:59.953Z,1012.2
2017-09-06T13:34:08.836Z,1012.21
2017-09-06T13:35:17.699Z,1012.2
2017-09-06T13:36:26.585Z,1012.14
2017-09-06T13:37:35.473Z,1012.27
2017-09-06T13:38:44.684Z,1012.1
2017-09-06T13:39:53.576Z,1012.18
2017-09-06T13:41:02.457Z,1012.37
2017-09-06T13:42:11.323Z,1012.43
2017-09-06T13:43:20.216Z,1012.25
2017-09-06T13:44:29.307Z,1012.15
2017-09-06T13:45:38.195Z,1012.21
2017-09-06T13:46:47.079Z,1012.19
2017-09-06T13:47:55.941Z,1012.19
2017-09-06T13:49:04.798Z,1012.28
2017-09-06T13:50:13.704Z,1012.21
2017-09-06T13:51:22.561Z,1012.45
2017-09-06T13:52:31.476Z,1012.22
2017-09-06T13:53:40.352Z,1012.17
2017-09-06T13:54:49.272Z,1012.21
2017-09-06T13:55:58.441Z,1012.06
2017-09-06T13:57:07.299Z,1012.07
2017-09-06T13:58:16.178Z,1012.1